sensor_id;sensor_type;location;lat;lon;timestamp;P1;durP1;ratioP1;P2;durP2;ratioP2
4078;SDS011;2054;47.858;11.156;2022-09-28T02:30:25;0.95;;;0.70;;
4078;SDS011;2054;47.858;11.156;2022-09-28T02:32:53;1.80;;;0.82;;
4078;SDS011;2054;47.858;11.156;2022-09-28T02:35:21;0.77;;;0.68;;
4078;SDS011;2054;47.858;11.156;2022-09-28T02:37:49;1.90;;;0.65;;
4078;SDS011;2054;47.858;11.156;2022-09-28T02:40:17;0.85;;;0.68;;
4078;SDS011;2054;47.858;11.156;2022-09-28T02:42:51;0.50;;;0.50;;
4078;SDS011;2054;47.858;11.156;2022-09-28T02:45:22;0.60;;;0.60;;
4078;SDS011;2054;47.858;11.156;2022-09-28T02:47:57;0.50;;;0.50;;
4078;SDS011;2054;47.858;11.156;2022-09-28T02:50:32;0.47;;;0.47;;
4078;SDS011;2054;47.858;11.156;2022-09-28T02:53:07;0.70;;;0.70;;
4078;SDS011;2054;47.858;11.156;2022-09-28T02:55:42;0.77;;;0.60;;
4078;SDS011;2054;47.858;11.156;2022-09-28T02:58:23;0.45;;;0.40;;
4078;SDS011;2054;47.858;11.156;2022-09-28T03:00:55;0.30;;;0.30;;
4078;SDS011;2054;47.858;11.156;2022-09-28T03:03:27;0.40;;;0.40;;
4078;SDS011;2054;47.858;11.156;2022-09-28T03:05:57;1.13;;;0.45;;
4078;SDS011;2054;47.858;11.156;2022-09-28T03:08:27;0.30;;;0.30;;
4078;SDS011;2054;47.858;11.156;2022-09-28T03:10:56;0.38;;;0.30;;
4078;SDS011;2054;47.858;11.156;2022-09-28T03:13:24;0.40;;;0.40;;
4078;SDS011;2054;47.858;11.156;2022-09-28T03:16:04;0.40;;;0.40;;
4078;SDS011;2054;47.858;11.156;2022-09-28T03:18:32;2.53;;;0.60;;
4078;SDS011;2054;47.858;11.156;2022-09-28T03:20:59;0.85;;;0.50;;
4078;SDS011;2054;47.858;11.156;2022-09-28T03:23:27;1.33;;;1.05;;
4078;SDS011;2054;47.858;11.156;2022-09-28T03:25:54;0.60;;;0.60;;
4078;SDS011;2054;47.858;11.156;2022-09-28T03:28:22;0.47;;;0.47;;
4078;SDS011;2054;47.858;11.156;2022-09-28T03:30:49;0.40;;;0.40;;
4078;SDS011;2054;47.858;11.156;2022-09-28T03:33:17;0.52;;;0.50;;
4078;SDS011;2054;47.858;11.156;2022-09-28T03:35:46;1.42;;;0.65;;
4078;SDS011;2054;47.858;11.156;2022-09-28T03:38:14;0.40;;;0.40;;
4078;SDS011;2054;47.858;11.156;2022-09-28T03:40:42;1.08;;;0.50;;
4078;SDS011;2054;47.858;11.156;2022-09-28T03:43:09;0.50;;;0.50;;
4078;SDS011;2054;47.858;11.156;2022-09-28T03:45:36;2.53;;;0.70;;
4078;SDS011;2054;47.858;11.156;2022-09-28T03:48:03;1.98;;;0.60;;
4078;SDS011;2054;47.858;11.156;2022-09-28T03:50:31;0.55;;;0.50;;
4078;SDS011;2054;47.858;11.156;2022-09-28T03:53:02;0.52;;;0.50;;
4078;SDS011;2054;47.858;11.156;2022-09-28T03:55:30;0.80;;;0.80;;
4078;SDS011;2054;47.858;11.156;2022-09-28T03:57:57;0.40;;;0.40;;
4078;SDS011;2054;47.858;11.156;2022-09-28T04:00:24;1.23;;;0.70;;
4078;SDS011;2054;47.858;11.156;2022-09-28T04:02:52;0.50;;;0.50;;
4078;SDS011;2054;47.858;11.156;2022-09-28T04:05:19;0.88;;;0.50;;
4078;SDS011;2054;47.858;11.156;2022-09-28T04:07:46;0.52;;;0.52;;
4078;SDS011;2054;47.858;11.156;2022-09-28T04:10:15;0.40;;;0.40;;
4078;SDS011;2054;47.858;11.156;2022-09-28T04:12:42;0.73;;;0.50;;
4078;SDS011;2054;47.858;11.156;2022-09-28T04:15:10;0.55;;;0.55;;
4078;SDS011;2054;47.858;11.156;2022-09-28T04:17:37;0.40;;;0.40;;
4078;SDS011;2054;47.858;11.156;2022-09-28T04:20:04;0.45;;;0.40;;
4078;SDS011;2054;47.858;11.156;2022-09-28T04:22:32;0.55;;;0.55;;
4078;SDS011;2054;47.858;11.156;2022-09-28T04:25:01;1.90;;;0.60;;
4078;SDS011;2054;47.858;11.156;2022-09-28T04:27:30;0.65;;;0.40;;
4078;SDS011;2054;47.858;11.156;2022-09-28T04:30:15;2.22;;;0.50;;
4078;SDS011;2054;47.858;11.156;2022-09-28T04:32:43;0.52;;;0.43;;
4078;SDS011;2054;47.858;11.156;2022-09-28T04:35:12;0.98;;;0.47;;
4078;SDS011;2054;47.858;11.156;2022-09-28T04:37:39;0.50;;;0.50;;
4078;SDS011;2054;47.858;11.156;2022-09-28T04:40:07;0.63;;;0.50;;
4078;SDS011;2054;47.858;11.156;2022-09-28T04:42:35;1.23;;;0.85;;
4078;SDS011;2054;47.858;11.156;2022-09-28T04:45:03;0.60;;;0.50;;
4078;SDS011;2054;47.858;11.156;2022-09-28T04:47:30;0.60;;;0.60;;
4078;SDS011;2054;47.858;11.156;2022-09-28T04:49:57;0.45;;;0.45;;
4078;SDS011;2054;47.858;11.156;2022-09-28T04:52:25;0.55;;;0.55;;
4078;SDS011;2054;47.858;11.156;2022-09-28T04:54:52;2.28;;;0.50;;
4078;SDS011;2054;47.858;11.156;2022-09-28T04:57:19;0.60;;;0.60;;
4078;SDS011;2054;47.858;11.156;2022-09-28T04:59:47;0.55;;;0.55;;
4078;SDS011;2054;47.858;11.156;2022-09-28T05:02:15;1.73;;;0.50;;
4078;SDS011;2054;47.858;11.156;2022-09-28T05:04:42;2.80;;;0.75;;
4078;SDS011;2054;47.858;11.156;2022-09-28T05:07:09;0.60;;;0.60;;
4078;SDS011;2054;47.858;11.156;2022-09-28T05:09:36;0.50;;;0.50;;
4078;SDS011;2054;47.858;11.156;2022-09-28T05:12:03;1.52;;;1.10;;
4078;SDS011;2054;47.858;11.156;2022-09-28T05:14:31;3.10;;;1.52;;
4078;SDS011;2054;47.858;11.156;2022-09-28T05:16:59;2.97;;;1.30;;
4078;SDS011;2054;47.858;11.156;2022-09-28T05:19:26;1.98;;;1.35;;
4078;SDS011;2054;47.858;11.156;2022-09-28T05:21:54;1.27;;;0.90;;
4078;SDS011;2054;47.858;11.156;2022-09-28T05:24:22;0.60;;;0.60;;
4078;SDS011;2054;47.858;11.156;2022-09-28T05:26:49;1.15;;;0.77;;
4078;SDS011;2054;47.858;11.156;2022-09-28T05:29:16;0.70;;;0.70;;
4078;SDS011;2054;47.858;11.156;2022-09-28T05:31:43;1.10;;;0.70;;
4078;SDS011;2054;47.858;11.156;2022-09-28T05:34:12;2.65;;;1.02;;
4078;SDS011;2054;47.858;11.156;2022-09-28T05:36:39;2.05;;;1.20;;
4078;SDS011;2054;47.858;11.156;2022-09-28T05:39:06;2.35;;;1.77;;
4078;SDS011;2054;47.858;11.156;2022-09-28T05:41:34;4.30;;;1.92;;
4078;SDS011;2054;47.858;11.156;2022-09-28T05:44:01;1.20;;;1.00;;
4078;SDS011;2054;47.858;11.156;2022-09-28T05:46:28;1.60;;;1.10;;
4078;SDS011;2054;47.858;11.156;2022-09-28T05:48:55;0.73;;;0.73;;
4078;SDS011;2054;47.858;11.156;2022-09-28T05:51:25;1.92;;;1.00;;
4078;SDS011;2054;47.858;11.156;2022-09-28T05:53:52;0.50;;;0.50;;
4078;SDS011;2054;47.858;11.156;2022-09-28T05:56:20;0.45;;;0.45;;
4078;SDS011;2054;47.858;11.156;2022-09-28T05:58:47;1.83;;;1.00;;
4078;SDS011;2054;47.858;11.156;2022-09-28T06:01:14;0.80;;;0.65;;
4078;SDS011;2054;47.858;11.156;2022-09-28T06:03:42;1.10;;;0.57;;
4078;SDS011;2054;47.858;11.156;2022-09-28T06:06:09;0.60;;;0.60;;
4078;SDS011;2054;47.858;11.156;2022-09-28T06:08:37;3.45;;;0.60;;
4078;SDS011;2054;47.858;11.156;2022-09-28T06:11:07;2.67;;;0.88;;
4078;SDS011;2054;47.858;11.156;2022-09-28T06:13:36;2.38;;;0.77;;
4078;SDS011;2054;47.858;11.156;2022-09-28T06:16:04;0.80;;;0.80;;
4078;SDS011;2054;47.858;11.156;2022-09-28T06:18:32;1.30;;;1.10;;
4078;SDS011;2054;47.858;11.156;2022-09-28T06:21:00;1.60;;;1.10;;
4078;SDS011;2054;47.858;11.156;2022-09-28T06:23:29;1.70;;;1.30;;
4078;SDS011;2054;47.858;11.156;2022-09-28T06:25:58;1.25;;;0.88;;
4078;SDS011;2054;47.858;11.156;2022-09-28T06:28:26;2.03;;;1.10;;
4078;SDS011;2054;47.858;11.156;2022-09-28T06:30:53;4.13;;;1.45;;
4078;SDS011;2054;47.858;11.156;2022-09-28T06:33:20;1.80;;;1.48;;
4078;SDS011;2054;47.858;11.156;2022-09-28T06:35:50;3.13;;;1.08;;
4078;SDS011;2054;47.858;11.156;2022-09-28T06:38:17;1.38;;;1.27;;
4078;SDS011;2054;47.858;11.156;2022-09-28T06:40:45;1.98;;;1.50;;
4078;SDS011;2054;47.858;11.156;2022-09-28T06:43:13;4.75;;;3.42;;
4078;SDS011;2054;47.858;11.156;2022-09-28T06:45:41;2.42;;;1.88;;
4078;SDS011;2054;47.858;11.156;2022-09-28T06:48:09;3.05;;;1.60;;
4078;SDS011;2054;47.858;11.156;2022-09-28T06:50:38;2.15;;;1.00;;
4078;SDS011;2054;47.858;11.156;2022-09-28T06:53:07;1.08;;;0.95;;
4078;SDS011;2054;47.858;11.156;2022-09-28T06:55:37;1.92;;;1.55;;
4078;SDS011;2054;47.858;11.156;2022-09-28T06:58:05;1.38;;;1.27;;
4078;SDS011;2054;47.858;11.156;2022-09-28T07:00:34;0.90;;;0.85;;
4078;SDS011;2054;47.858;11.156;2022-09-28T07:03:02;2.72;;;1.67;;
4078;SDS011;2054;47.858;11.156;2022-09-28T07:05:29;4.03;;;2.38;;
4078;SDS011;2054;47.858;11.156;2022-09-28T07:07:59;2.00;;;1.23;;
4078;SDS011;2054;47.858;11.156;2022-09-28T07:10:27;2.92;;;1.15;;
4078;SDS011;2054;47.858;11.156;2022-09-28T07:12:54;2.42;;;0.77;;
4078;SDS011;2054;47.858;11.156;2022-09-28T07:15:22;1.58;;;1.02;;
4078;SDS011;2054;47.858;11.156;2022-09-28T07:17:51;2.25;;;1.10;;
4078;SDS011;2054;47.858;11.156;2022-09-28T07:20:22;0.93;;;0.88;;
4078;SDS011;2054;47.858;11.156;2022-09-28T07:22:51;3.03;;;1.00;;
4078;SDS011;2054;47.858;11.156;2022-09-28T07:25:18;0.82;;;0.77;;
4078;SDS011;2054;47.858;11.156;2022-09-28T07:27:45;1.63;;;0.90;;
4078;SDS011;2054;47.858;11.156;2022-09-28T07:30:13;1.30;;;1.00;;
4078;SDS011;2054;47.858;11.156;2022-09-28T07:32:40;1.85;;;0.90;;
4078;SDS011;2054;47.858;11.156;2022-09-28T07:35:09;1.00;;;0.88;;
4078;SDS011;2054;47.858;11.156;2022-09-28T07:37:37;1.70;;;0.90;;
4078;SDS011;2054;47.858;11.156;2022-09-28T07:40:05;2.17;;;0.90;;
4078;SDS011;2054;47.858;11.156;2022-09-28T07:42:50;1.02;;;0.93;;
4078;SDS011;2054;47.858;11.156;2022-09-28T07:45:18;1.42;;;1.08;;
4078;SDS011;2054;47.858;11.156;2022-09-28T07:47:47;1.23;;;1.13;;
4078;SDS011;2054;47.858;11.156;2022-09-28T07:50:16;1.58;;;1.20;;
4078;SDS011;2054;47.858;11.156;2022-09-28T07:52:45;1.75;;;1.30;;
4078;SDS011;2054;47.858;11.156;2022-09-28T07:55:12;2.90;;;1.52;;
4078;SDS011;2054;47.858;11.156;2022-09-28T07:57:39;4.78;;;1.70;;
4078;SDS011;2054;47.858;11.156;2022-09-28T08:00:07;1.50;;;1.40;;
4078;SDS011;2054;47.858;11.156;2022-09-28T08:02:35;1.98;;;1.40;;
4078;SDS011;2054;47.858;11.156;2022-09-28T08:05:03;3.13;;;1.15;;
4078;SDS011;2054;47.858;11.156;2022-09-28T08:07:32;2.30;;;1.70;;
4078;SDS011;2054;47.858;11.156;2022-09-28T08:10:02;1.85;;;1.27;;
4078;SDS011;2054;47.858;11.156;2022-09-28T08:12:29;1.30;;;1.20;;
4078;SDS011;2054;47.858;11.156;2022-09-28T08:14:57;4.18;;;1.30;;
4078;SDS011;2054;47.858;11.156;2022-09-28T08:17:24;1.20;;;0.95;;
4078;SDS011;2054;47.858;11.156;2022-09-28T08:19:51;1.60;;;1.10;;
4078;SDS011;2054;47.858;11.156;2022-09-28T08:22:37;4.13;;;1.10;;
4078;SDS011;2054;47.858;11.156;2022-09-28T08:25:05;1.33;;;1.23;;
4078;SDS011;2054;47.858;11.156;2022-09-28T08:27:32;1.65;;;1.00;;
4078;SDS011;2054;47.858;11.156;2022-09-28T08:29:59;0.85;;;0.85;;
4078;SDS011;2054;47.858;11.156;2022-09-28T08:32:26;0.70;;;0.70;;
4078;SDS011;2054;47.858;11.156;2022-09-28T08:34:55;0.98;;;0.88;;
4078;SDS011;2054;47.858;11.156;2022-09-28T08:37:22;1.00;;;0.70;;
4078;SDS011;2054;47.858;11.156;2022-09-28T08:39:50;0.90;;;0.70;;
4078;SDS011;2054;47.858;11.156;2022-09-28T08:42:24;0.70;;;0.70;;
4078;SDS011;2054;47.858;11.156;2022-09-28T08:44:56;0.60;;;0.60;;
4078;SDS011;2054;47.858;11.156;2022-09-28T08:47:25;2.22;;;0.73;;
4078;SDS011;2054;47.858;11.156;2022-09-28T08:50:12;0.60;;;0.60;;
4078;SDS011;2054;47.858;11.156;2022-09-28T08:52:42;2.40;;;1.35;;
4078;SDS011;2054;47.858;11.156;2022-09-28T08:55:14;2.78;;;1.58;;
4078;SDS011;2054;47.858;11.156;2022-09-28T08:57:43;1.90;;;1.05;;
4078;SDS011;2054;47.858;11.156;2022-09-28T09:00:14;1.92;;;1.20;;
4078;SDS011;2054;47.858;11.156;2022-09-28T09:02:43;2.67;;;1.60;;
4078;SDS011;2054;47.858;11.156;2022-09-28T09:05:12;2.63;;;1.90;;
4078;SDS011;2054;47.858;11.156;2022-09-28T09:07:53;3.25;;;1.65;;
4078;SDS011;2054;47.858;11.156;2022-09-28T09:13:13;2.30;;;1.50;;
4078;SDS011;2054;47.858;11.156;2022-09-28T09:15:47;1.80;;;1.58;;
4078;SDS011;2054;47.858;11.156;2022-09-28T09:18:19;4.35;;;1.40;;
4078;SDS011;2054;47.858;11.156;2022-09-28T09:20:50;1.40;;;1.30;;
4078;SDS011;2054;47.858;11.156;2022-09-28T09:23:19;1.42;;;1.20;;
4078;SDS011;2054;47.858;11.156;2022-09-28T09:25:53;1.50;;;1.15;;
4078;SDS011;2054;47.858;11.156;2022-09-28T09:28:36;1.90;;;1.10;;
4078;SDS011;2054;47.858;11.156;2022-09-28T09:31:07;2.33;;;1.67;;
4078;SDS011;2054;47.858;11.156;2022-09-28T09:33:41;4.00;;;1.30;;
4078;SDS011;2054;47.858;11.156;2022-09-28T09:36:17;1.92;;;1.25;;
4078;SDS011;2054;47.858;11.156;2022-09-28T09:38:51;2.30;;;1.30;;
4078;SDS011;2054;47.858;11.156;2022-09-28T09:41:22;3.42;;;1.35;;
4078;SDS011;2054;47.858;11.156;2022-09-28T09:46:40;1.80;;;1.33;;
4078;SDS011;2054;47.858;11.156;2022-09-28T09:49:10;2.08;;;1.33;;
4078;SDS011;2054;47.858;11.156;2022-09-28T09:51:40;1.08;;;0.98;;
4078;SDS011;2054;47.858;11.156;2022-09-28T09:54:11;1.20;;;0.90;;
4078;SDS011;2054;47.858;11.156;2022-09-28T09:56:41;1.23;;;0.85;;
4078;SDS011;2054;47.858;11.156;2022-09-28T09:59:12;1.58;;;1.00;;
4078;SDS011;2054;47.858;11.156;2022-09-28T10:01:42;0.90;;;0.88;;
4078;SDS011;2054;47.858;11.156;2022-09-28T10:04:12;3.15;;;0.60;;
4078;SDS011;2054;47.858;11.156;2022-09-28T10:06:40;0.57;;;0.57;;
4078;SDS011;2054;47.858;11.156;2022-09-28T10:09:09;0.60;;;0.60;;
4078;SDS011;2054;47.858;11.156;2022-09-28T10:11:38;1.80;;;1.27;;
4078;SDS011;2054;47.858;11.156;2022-09-28T10:14:07;3.15;;;1.10;;
4078;SDS011;2054;47.858;11.156;2022-09-28T10:16:35;3.83;;;2.22;;
4078;SDS011;2054;47.858;11.156;2022-09-28T10:19:04;2.35;;;2.15;;
4078;SDS011;2054;47.858;11.156;2022-09-28T10:21:31;1.00;;;0.90;;
4078;SDS011;2054;47.858;11.156;2022-09-28T10:24:01;1.20;;;1.10;;
4078;SDS011;2054;47.858;11.156;2022-09-28T10:26:31;1.92;;;1.83;;
4078;SDS011;2054;47.858;11.156;2022-09-28T10:28:59;2.50;;;2.38;;
4078;SDS011;2054;47.858;11.156;2022-09-28T10:31:37;2.00;;;1.90;;
4078;SDS011;2054;47.858;11.156;2022-09-28T10:34:10;4.78;;;4.40;;
4078;SDS011;2054;47.858;11.156;2022-09-28T10:36:45;2.03;;;1.92;;
4078;SDS011;2054;47.858;11.156;2022-09-28T10:39:29;0.30;;;0.30;;
4078;SDS011;2054;47.858;11.156;2022-09-28T10:41:57;0.40;;;0.40;;
4078;SDS011;2054;47.858;11.156;2022-09-28T10:44:27;0.98;;;0.77;;
4078;SDS011;2054;47.858;11.156;2022-09-28T10:46:57;2.15;;;1.50;;
4078;SDS011;2054;47.858;11.156;2022-09-28T10:49:26;1.50;;;0.40;;
4078;SDS011;2054;47.858;11.156;2022-09-28T10:51:55;0.50;;;0.50;;
4078;SDS011;2054;47.858;11.156;2022-09-28T10:54:22;0.77;;;0.50;;
4078;SDS011;2054;47.858;11.156;2022-09-28T10:56:50;0.90;;;0.50;;
4078;SDS011;2054;47.858;11.156;2022-09-28T10:59:21;0.57;;;0.50;;
4078;SDS011;2054;47.858;11.156;2022-09-28T11:01:51;1.08;;;0.45;;
4078;SDS011;2054;47.858;11.156;2022-09-28T11:04:19;1.58;;;0.75;;
4078;SDS011;2054;47.858;11.156;2022-09-28T11:06:49;2.15;;;0.68;;
4078;SDS011;2054;47.858;11.156;2022-09-28T11:09:22;1.75;;;0.50;;
4078;SDS011;2054;47.858;11.156;2022-09-28T11:11:50;1.02;;;0.90;;
4078;SDS011;2054;47.858;11.156;2022-09-28T11:14:20;1.60;;;1.50;;
4078;SDS011;2054;47.858;11.156;2022-09-28T11:19:33;2.00;;;0.98;;
4078;SDS011;2054;47.858;11.156;2022-09-28T11:22:01;2.47;;;0.70;;
4078;SDS011;2054;47.858;11.156;2022-09-28T11:24:45;2.50;;;0.90;;
4078;SDS011;2054;47.858;11.156;2022-09-28T11:27:18;1.52;;;0.60;;
4078;SDS011;2054;47.858;11.156;2022-09-28T11:29:50;0.98;;;0.70;;
4078;SDS011;2054;47.858;11.156;2022-09-28T11:32:19;1.70;;;0.60;;
4078;SDS011;2054;47.858;11.156;2022-09-28T11:34:47;2.40;;;1.17;;
4078;SDS011;2054;47.858;11.156;2022-09-28T11:40:04;1.48;;;0.60;;
4078;SDS011;2054;47.858;11.156;2022-09-28T11:42:39;0.60;;;0.50;;
4078;SDS011;2054;47.858;11.156;2022-09-28T11:45:16;2.67;;;0.90;;
4078;SDS011;2054;47.858;11.156;2022-09-28T11:47:50;1.02;;;0.70;;
4078;SDS011;2054;47.858;11.156;2022-09-28T11:50:20;2.67;;;0.63;;
4078;SDS011;2054;47.858;11.156;2022-09-28T11:52:49;2.50;;;0.80;;
4078;SDS011;2054;47.858;11.156;2022-09-28T11:55:25;1.83;;;0.70;;
4078;SDS011;2054;47.858;11.156;2022-09-28T11:57:55;1.95;;;0.95;;
4078;SDS011;2054;47.858;11.156;2022-09-28T12:00:23;1.85;;;1.20;;
4078;SDS011;2054;47.858;11.156;2022-09-28T12:02:52;1.20;;;1.00;;
4078;SDS011;2054;47.858;11.156;2022-09-28T12:05:23;0.82;;;0.63;;
4078;SDS011;2054;47.858;11.156;2022-09-28T12:07:52;1.45;;;0.70;;
4078;SDS011;2054;47.858;11.156;2022-09-28T12:10:24;2.05;;;0.93;;
4078;SDS011;2054;47.858;11.156;2022-09-28T12:12:55;2.25;;;0.80;;
4078;SDS011;2054;47.858;11.156;2022-09-28T12:15:25;2.42;;;0.63;;
4078;SDS011;2054;47.858;11.156;2022-09-28T12:17:55;3.40;;;0.70;;
4078;SDS011;2054;47.858;11.156;2022-09-28T12:20:24;2.70;;;1.25;;
4078;SDS011;2054;47.858;11.156;2022-09-28T12:22:54;3.65;;;1.15;;
4078;SDS011;2054;47.858;11.156;2022-09-28T12:25:26;4.43;;;3.05;;
4078;SDS011;2054;47.858;11.156;2022-09-28T12:27:56;3.53;;;1.90;;
4078;SDS011;2054;47.858;11.156;2022-09-28T12:30:27;2.22;;;1.00;;
4078;SDS011;2054;47.858;11.156;2022-09-28T12:33:00;0.80;;;0.50;;
4078;SDS011;2054;47.858;11.156;2022-09-28T12:35:31;1.65;;;0.93;;
4078;SDS011;2054;47.858;11.156;2022-09-28T12:38:12;3.88;;;1.63;;
4078;SDS011;2054;47.858;11.156;2022-09-28T12:40:44;2.80;;;1.48;;
4078;SDS011;2054;47.858;11.156;2022-09-28T12:46:06;1.20;;;0.70;;
4078;SDS011;2054;47.858;11.156;2022-09-28T12:48:39;0.70;;;0.65;;
4078;SDS011;2054;47.858;11.156;2022-09-28T12:51:13;1.58;;;0.70;;
4078;SDS011;2054;47.858;11.156;2022-09-28T12:53:49;1.52;;;0.60;;
4078;SDS011;2054;47.858;11.156;2022-09-28T12:56:22;1.48;;;0.82;;
4078;SDS011;2054;47.858;11.156;2022-09-28T12:58:55;0.75;;;0.75;;
4078;SDS011;2054;47.858;11.156;2022-09-28T13:01:30;0.70;;;0.70;;
4078;SDS011;2054;47.858;11.156;2022-09-28T13:04:14;0.80;;;0.80;;
4078;SDS011;2054;47.858;11.156;2022-09-28T13:06:48;0.60;;;0.60;;
4078;SDS011;2054;47.858;11.156;2022-09-28T13:09:19;0.80;;;0.80;;
4078;SDS011;2054;47.858;11.156;2022-09-28T13:12:01;0.75;;;0.70;;
4078;SDS011;2054;47.858;11.156;2022-09-28T13:14:43;0.88;;;0.63;;
4078;SDS011;2054;47.858;11.156;2022-09-28T13:17:17;0.70;;;0.57;;
4078;SDS011;2054;47.858;11.156;2022-09-28T13:19:48;1.38;;;0.60;;
4078;SDS011;2054;47.858;11.156;2022-09-28T13:22:20;0.88;;;0.70;;
4078;SDS011;2054;47.858;11.156;2022-09-28T13:24:49;0.47;;;0.47;;
4078;SDS011;2054;47.858;11.156;2022-09-28T13:27:20;0.32;;;0.32;;
4078;SDS011;2054;47.858;11.156;2022-09-28T13:29:49;0.40;;;0.40;;
4078;SDS011;2054;47.858;11.156;2022-09-28T13:32:19;0.40;;;0.40;;
4078;SDS011;2054;47.858;11.156;2022-09-28T13:34:48;0.80;;;0.60;;
4078;SDS011;2054;47.858;11.156;2022-09-28T13:37:20;0.82;;;0.70;;
4078;SDS011;2054;47.858;11.156;2022-09-28T13:39:49;0.50;;;0.50;;
4078;SDS011;2054;47.858;11.156;2022-09-28T13:42:22;1.02;;;0.93;;
4078;SDS011;2054;47.858;11.156;2022-09-28T13:44:53;1.20;;;0.43;;
4078;SDS011;2054;47.858;11.156;2022-09-28T13:47:33;1.13;;;0.60;;
4078;SDS011;2054;47.858;11.156;2022-09-28T13:50:10;0.38;;;0.38;;
4078;SDS011;2054;47.858;11.156;2022-09-28T13:52:43;1.02;;;0.77;;
4078;SDS011;2054;47.858;11.156;2022-09-28T13:55:22;1.42;;;0.80;;
4078;SDS011;2054;47.858;11.156;2022-09-28T13:57:51;1.05;;;0.95;;
4078;SDS011;2054;47.858;11.156;2022-09-28T14:00:23;0.60;;;0.60;;
4078;SDS011;2054;47.858;11.156;2022-09-28T14:02:55;0.68;;;0.68;;
4078;SDS011;2054;47.858;11.156;2022-09-28T14:05:32;0.70;;;0.70;;
4078;SDS011;2054;47.858;11.156;2022-09-28T14:08:22;1.13;;;1.00;;
4078;SDS011;2054;47.858;11.156;2022-09-28T14:10:51;0.98;;;0.90;;
4078;SDS011;2054;47.858;11.156;2022-09-28T14:16:20;1.48;;;1.10;;
4078;SDS011;2054;47.858;11.156;2022-09-28T14:18:49;2.28;;;0.82;;
4078;SDS011;2054;47.858;11.156;2022-09-28T14:21:26;0.57;;;0.57;;
4078;SDS011;2054;47.858;11.156;2022-09-28T14:24:05;0.60;;;0.60;;
4078;SDS011;2054;47.858;11.156;2022-09-28T14:26:40;1.52;;;0.75;;
4078;SDS011;2054;47.858;11.156;2022-09-28T14:29:14;0.60;;;0.60;;
4078;SDS011;2054;47.858;11.156;2022-09-28T14:31:46;0.50;;;0.50;;
4078;SDS011;2054;47.858;11.156;2022-09-28T14:34:29;2.05;;;1.48;;
4078;SDS011;2054;47.858;11.156;2022-09-28T14:37:01;4.40;;;2.97;;
4078;SDS011;2054;47.858;11.156;2022-09-28T14:39:47;3.45;;;2.80;;
4078;SDS011;2054;47.858;11.156;2022-09-28T14:45:35;2.80;;;2.00;;
4078;SDS011;2054;47.858;11.156;2022-09-28T14:48:09;3.78;;;2.67;;
4078;SDS011;2054;47.858;11.156;2022-09-28T14:50:39;13.82;;;7.25;;
4078;SDS011;2054;47.858;11.156;2022-09-28T14:53:09;4.88;;;2.60;;
4078;SDS011;2054;47.858;11.156;2022-09-28T14:55:39;2.60;;;2.28;;
4078;SDS011;2054;47.858;11.156;2022-09-28T14:58:07;7.82;;;3.88;;
4078;SDS011;2054;47.858;11.156;2022-09-28T15:00:41;1.92;;;1.67;;
4078;SDS011;2054;47.858;11.156;2022-09-28T15:03:09;3.90;;;1.95;;
4078;SDS011;2054;47.858;11.156;2022-09-28T15:05:37;4.22;;;2.53;;
4078;SDS011;2054;47.858;11.156;2022-09-28T15:08:09;2.30;;;1.58;;
4078;SDS011;2054;47.858;11.156;2022-09-28T15:10:37;2.45;;;2.10;;
4078;SDS011;2054;47.858;11.156;2022-09-28T15:13:14;3.38;;;1.70;;
4078;SDS011;2054;47.858;11.156;2022-09-28T15:15:45;3.83;;;3.25;;
4078;SDS011;2054;47.858;11.156;2022-09-28T15:18:30;4.90;;;4.40;;
4078;SDS011;2054;47.858;11.156;2022-09-28T15:21:02;5.20;;;3.70;;
4078;SDS011;2054;47.858;11.156;2022-09-28T15:23:34;7.90;;;6.38;;
4078;SDS011;2054;47.858;11.156;2022-09-28T15:26:02;3.83;;;2.80;;
4078;SDS011;2054;47.858;11.156;2022-09-28T15:28:32;3.00;;;2.15;;
4078;SDS011;2054;47.858;11.156;2022-09-28T15:31:00;4.28;;;2.50;;
4078;SDS011;2054;47.858;11.156;2022-09-28T15:33:28;5.25;;;3.13;;
4078;SDS011;2054;47.858;11.156;2022-09-28T15:36:15;3.13;;;1.75;;
4078;SDS011;2054;47.858;11.156;2022-09-28T15:38:47;2.75;;;2.13;;
4078;SDS011;2054;47.858;11.156;2022-09-28T15:41:17;2.92;;;2.25;;
4078;SDS011;2054;47.858;11.156;2022-09-28T15:44:01;3.60;;;2.22;;
4078;SDS011;2054;47.858;11.156;2022-09-28T15:46:31;4.60;;;3.80;;
4078;SDS011;2054;47.858;11.156;2022-09-28T15:48:59;6.50;;;3.65;;
4078;SDS011;2054;47.858;11.156;2022-09-28T15:51:28;5.82;;;4.53;;
4078;SDS011;2054;47.858;11.156;2022-09-28T15:53:57;4.93;;;3.33;;
4078;SDS011;2054;47.858;11.156;2022-09-28T15:56:27;4.90;;;3.95;;
4078;SDS011;2054;47.858;11.156;2022-09-28T15:59:06;5.93;;;3.20;;
4078;SDS011;2054;47.858;11.156;2022-09-28T16:01:34;5.13;;;3.05;;
4078;SDS011;2054;47.858;11.156;2022-09-28T16:07:03;5.28;;;3.30;;
4078;SDS011;2054;47.858;11.156;2022-09-28T16:09:32;6.50;;;3.88;;
4078;SDS011;2054;47.858;11.156;2022-09-28T16:12:06;6.43;;;4.00;;
4078;SDS011;2054;47.858;11.156;2022-09-28T16:14:34;8.05;;;4.47;;
4078;SDS011;2054;47.858;11.156;2022-09-28T16:17:02;6.03;;;4.70;;
4078;SDS011;2054;47.858;11.156;2022-09-28T16:19:30;4.88;;;4.20;;
4078;SDS011;2054;47.858;11.156;2022-09-28T16:21:58;3.28;;;2.15;;
4078;SDS011;2054;47.858;11.156;2022-09-28T16:24:26;2.67;;;2.22;;
4078;SDS011;2054;47.858;11.156;2022-09-28T16:26:57;2.88;;;2.17;;
4078;SDS011;2054;47.858;11.156;2022-09-28T16:29:26;3.15;;;2.00;;
4078;SDS011;2054;47.858;11.156;2022-09-28T16:31:54;1.60;;;1.50;;
4078;SDS011;2054;47.858;11.156;2022-09-28T16:34:23;2.83;;;1.63;;
4078;SDS011;2054;47.858;11.156;2022-09-28T16:36:50;4.30;;;1.92;;
4078;SDS011;2054;47.858;11.156;2022-09-28T16:39:17;3.10;;;1.92;;
4078;SDS011;2054;47.858;11.156;2022-09-28T16:41:47;3.75;;;2.13;;
4078;SDS011;2054;47.858;11.156;2022-09-28T16:44:17;4.13;;;2.10;;
4078;SDS011;2054;47.858;11.156;2022-09-28T16:46:45;4.13;;;1.80;;
4078;SDS011;2054;47.858;11.156;2022-09-28T16:49:13;3.72;;;2.38;;
4078;SDS011;2054;47.858;11.156;2022-09-28T16:51:42;3.58;;;1.95;;
4078;SDS011;2054;47.858;11.156;2022-09-28T16:54:12;3.25;;;1.77;;
4078;SDS011;2054;47.858;11.156;2022-09-28T16:56:57;3.20;;;1.95;;
4078;SDS011;2054;47.858;11.156;2022-09-28T16:59:25;2.88;;;1.80;;
4078;SDS011;2054;47.858;11.156;2022-09-28T17:01:53;2.03;;;1.60;;
4078;SDS011;2054;47.858;11.156;2022-09-28T17:04:21;3.60;;;2.05;;
4078;SDS011;2054;47.858;11.156;2022-09-28T17:06:48;2.80;;;2.20;;
4078;SDS011;2054;47.858;11.156;2022-09-28T17:09:17;2.80;;;2.25;;
4078;SDS011;2054;47.858;11.156;2022-09-28T17:11:44;5.63;;;2.17;;
4078;SDS011;2054;47.858;11.156;2022-09-28T17:14:12;2.53;;;2.15;;
4078;SDS011;2054;47.858;11.156;2022-09-28T17:16:40;3.78;;;2.00;;
4078;SDS011;2054;47.858;11.156;2022-09-28T17:19:15;4.40;;;2.10;;
4078;SDS011;2054;47.858;11.156;2022-09-28T17:21:43;2.00;;;1.80;;
4078;SDS011;2054;47.858;11.156;2022-09-28T17:24:10;2.47;;;1.88;;
4078;SDS011;2054;47.858;11.156;2022-09-28T17:26:37;4.72;;;2.03;;
4078;SDS011;2054;47.858;11.156;2022-09-28T17:29:07;3.92;;;2.38;;
4078;SDS011;2054;47.858;11.156;2022-09-28T17:31:38;4.32;;;2.80;;
4078;SDS011;2054;47.858;11.156;2022-09-28T17:34:07;6.60;;;3.50;;
4078;SDS011;2054;47.858;11.156;2022-09-28T17:36:34;6.88;;;4.05;;
4078;SDS011;2054;47.858;11.156;2022-09-28T17:39:02;7.43;;;3.92;;
4078;SDS011;2054;47.858;11.156;2022-09-28T17:41:29;10.50;;;4.63;;
4078;SDS011;2054;47.858;11.156;2022-09-28T17:43:58;6.22;;;3.40;;
4078;SDS011;2054;47.858;11.156;2022-09-28T17:46:27;5.63;;;3.13;;
4078;SDS011;2054;47.858;11.156;2022-09-28T17:48:56;8.48;;;4.68;;
4078;SDS011;2054;47.858;11.156;2022-09-28T17:51:25;8.00;;;5.97;;
4078;SDS011;2054;47.858;11.156;2022-09-28T17:53:52;8.38;;;5.35;;
4078;SDS011;2054;47.858;11.156;2022-09-28T17:56:20;7.10;;;4.43;;
4078;SDS011;2054;47.858;11.156;2022-09-28T17:58:48;7.97;;;5.10;;
4078;SDS011;2054;47.858;11.156;2022-09-28T18:01:16;8.30;;;5.43;;
4078;SDS011;2054;47.858;11.156;2022-09-28T18:03:43;6.93;;;4.97;;
4078;SDS011;2054;47.858;11.156;2022-09-28T18:06:11;5.13;;;3.83;;
4078;SDS011;2054;47.858;11.156;2022-09-28T18:08:40;5.50;;;3.22;;
4078;SDS011;2054;47.858;11.156;2022-09-28T18:11:08;3.20;;;2.42;;